Terminal Aerodrome Forecast
Issued by NWS

Home | Current Version | Previous Version | Text Only | Print | Product List | Glossary On
Versions: 1 2 3 4 5 6 7 8 9 10 11 12 13 14 15 16 17 18 19 20 21
000
FTUS43 KAPX 150740 AAA
TAFPLN
TAF AMD
KPLN 150740Z 1508/1606 14005KT 1 1/2SM -SHSN OVC022
     FM151200 24004KT 1 1/2SM -SHSN OVC015
     FM151800 30009KT 5SM -SHSN OVC020
     FM152100 31012KT 5SM -SHSN OVC035
     FM160400 31007KT 5SM -SHSN BKN030=

USA.gov is the U.S. government's official web portal to all federal, state and local government web resources and services.